sensor_id;sensor_type;location;lat;lon;timestamp;temperature;humidity
9939;DHT22;5008;50.656;7.188;2022-10-17T00:00:27;17.30;99.90
9939;DHT22;5008;50.656;7.188;2022-10-17T00:02:55;17.30;99.90
9939;DHT22;5008;50.656;7.188;2022-10-17T00:05:22;17.40;99.90
9939;DHT22;5008;50.656;7.188;2022-10-17T00:07:49;17.40;99.90
9939;DHT22;5008;50.656;7.188;2022-10-17T00:10:19;17.40;99.90
9939;DHT22;5008;50.656;7.188;2022-10-17T00:12:46;17.50;99.90
9939;DHT22;5008;50.656;7.188;2022-10-17T00:15:15;17.50;99.90
9939;DHT22;5008;50.656;7.188;2022-10-17T00:17:41;17.50;99.90
9939;DHT22;5008;50.656;7.188;2022-10-17T00:20:09;17.40;99.90
9939;DHT22;5008;50.656;7.188;2022-10-17T00:22:36;17.40;99.90
9939;DHT22;5008;50.656;7.188;2022-10-17T00:25:03;17.30;99.90
9939;DHT22;5008;50.656;7.188;2022-10-17T00:27:33;17.40;99.90
9939;DHT22;5008;50.656;7.188;2022-10-17T00:30:00;17.30;99.90
9939;DHT22;5008;50.656;7.188;2022-10-17T00:32:28;17.40;99.90
9939;DHT22;5008;50.656;7.188;2022-10-17T00:34:54;17.40;99.90
9939;DHT22;5008;50.656;7.188;2022-10-17T00:37:21;17.50;99.90
9939;DHT22;5008;50.656;7.188;2022-10-17T00:39:48;17.40;99.90
9939;DHT22;5008;50.656;7.188;2022-10-17T00:42:15;17.50;99.90
9939;DHT22;5008;50.656;7.188;2022-10-17T00:45:15;17.50;99.90
9939;DHT22;5008;50.656;7.188;2022-10-17T00:47:44;17.40;99.90
9939;DHT22;5008;50.656;7.188;2022-10-17T00:50:12;17.40;99.90
9939;DHT22;5008;50.656;7.188;2022-10-17T00:52:40;17.40;99.90
9939;DHT22;5008;50.656;7.188;2022-10-17T00:55:13;17.40;99.90
9939;DHT22;5008;50.656;7.188;2022-10-17T00:57:40;17.40;99.90
9939;DHT22;5008;50.656;7.188;2022-10-17T01:00:09;17.40;99.90
9939;DHT22;5008;50.656;7.188;2022-10-17T01:02:38;17.40;99.90
9939;DHT22;5008;50.656;7.188;2022-10-17T01:05:06;17.40;99.90
9939;DHT22;5008;50.656;7.188;2022-10-17T01:07:34;17.40;99.90
9939;DHT22;5008;50.656;7.188;2022-10-17T01:10:03;17.40;99.90
9939;DHT22;5008;50.656;7.188;2022-10-17T01:12:38;17.30;99.90
9939;DHT22;5008;50.656;7.188;2022-10-17T01:15:12;17.20;99.90
9939;DHT22;5008;50.656;7.188;2022-10-17T01:17:51;17.10;99.90
9939;DHT22;5008;50.656;7.188;2022-10-17T01:20:45;17.10;99.90
9939;DHT22;5008;50.656;7.188;2022-10-17T01:23:32;17.00;99.90
9939;DHT22;5008;50.656;7.188;2022-10-17T01:26:09;17.00;99.90
9939;DHT22;5008;50.656;7.188;2022-10-17T01:29:07;16.90;99.90
9939;DHT22;5008;50.656;7.188;2022-10-17T01:31:43;16.90;99.90
9939;DHT22;5008;50.656;7.188;2022-10-17T01:34:15;16.90;99.90
9939;DHT22;5008;50.656;7.188;2022-10-17T01:36:48;16.90;99.90
9939;DHT22;5008;50.656;7.188;2022-10-17T01:39:23;16.80;99.90
9939;DHT22;5008;50.656;7.188;2022-10-17T01:41:58;16.80;99.90
9939;DHT22;5008;50.656;7.188;2022-10-17T01:44:33;16.70;99.90
9939;DHT22;5008;50.656;7.188;2022-10-17T01:47:05;16.70;99.90
9939;DHT22;5008;50.656;7.188;2022-10-17T01:49:34;16.60;99.90
9939;DHT22;5008;50.656;7.188;2022-10-17T01:52:06;16.70;99.90
9939;DHT22;5008;50.656;7.188;2022-10-17T01:54:38;16.70;99.90
9939;DHT22;5008;50.656;7.188;2022-10-17T01:57:10;16.70;99.90
9939;DHT22;5008;50.656;7.188;2022-10-17T01:59:40;16.80;99.90
9939;DHT22;5008;50.656;7.188;2022-10-17T02:02:09;16.80;99.90
9939;DHT22;5008;50.656;7.188;2022-10-17T02:04:37;16.80;99.90
9939;DHT22;5008;50.656;7.188;2022-10-17T02:07:08;16.80;99.90
9939;DHT22;5008;50.656;7.188;2022-10-17T02:09:35;16.80;99.90
9939;DHT22;5008;50.656;7.188;2022-10-17T02:12:20;16.80;99.90
9939;DHT22;5008;50.656;7.188;2022-10-17T02:15:00;16.80;99.90
9939;DHT22;5008;50.656;7.188;2022-10-17T02:17:41;16.90;99.90
9939;DHT22;5008;50.656;7.188;2022-10-17T02:20:19;16.90;99.90
9939;DHT22;5008;50.656;7.188;2022-10-17T02:22:53;16.90;99.90
9939;DHT22;5008;50.656;7.188;2022-10-17T02:25:28;16.90;99.90
9939;DHT22;5008;50.656;7.188;2022-10-17T02:28:03;16.90;99.90
9939;DHT22;5008;50.656;7.188;2022-10-17T02:30:35;16.80;99.90
9939;DHT22;5008;50.656;7.188;2022-10-17T02:33:08;16.90;99.90
9939;DHT22;5008;50.656;7.188;2022-10-17T02:35:39;16.80;99.90
9939;DHT22;5008;50.656;7.188;2022-10-17T02:38:07;16.80;99.90
9939;DHT22;5008;50.656;7.188;2022-10-17T02:40:37;16.80;99.90
9939;DHT22;5008;50.656;7.188;2022-10-17T02:43:05;16.80;99.90
9939;DHT22;5008;50.656;7.188;2022-10-17T02:45:33;16.90;99.90
9939;DHT22;5008;50.656;7.188;2022-10-17T02:48:04;16.90;99.90
9939;DHT22;5008;50.656;7.188;2022-10-17T02:50:41;16.90;99.90
9939;DHT22;5008;50.656;7.188;2022-10-17T02:53:13;17.00;99.90
9939;DHT22;5008;50.656;7.188;2022-10-17T02:55:46;16.90;99.90
9939;DHT22;5008;50.656;7.188;2022-10-17T02:58:18;16.90;99.90
9939;DHT22;5008;50.656;7.188;2022-10-17T03:00:47;16.90;99.90
9939;DHT22;5008;50.656;7.188;2022-10-17T03:03:23;16.90;99.90
9939;DHT22;5008;50.656;7.188;2022-10-17T03:05:51;16.90;99.90
9939;DHT22;5008;50.656;7.188;2022-10-17T03:08:18;16.90;99.90
9939;DHT22;5008;50.656;7.188;2022-10-17T03:10:46;16.90;99.90
9939;DHT22;5008;50.656;7.188;2022-10-17T03:15:52;16.90;99.90
9939;DHT22;5008;50.656;7.188;2022-10-17T03:18:18;17.00;99.90
9939;DHT22;5008;50.656;7.188;2022-10-17T03:20:47;17.00;99.90
9939;DHT22;5008;50.656;7.188;2022-10-17T03:23:14;17.00;99.90
9939;DHT22;5008;50.656;7.188;2022-10-17T03:25:40;17.10;99.90
9939;DHT22;5008;50.656;7.188;2022-10-17T03:28:08;17.10;99.90
9939;DHT22;5008;50.656;7.188;2022-10-17T03:30:37;17.10;99.90
9939;DHT22;5008;50.656;7.188;2022-10-17T03:33:04;17.10;99.90
9939;DHT22;5008;50.656;7.188;2022-10-17T03:35:31;17.10;99.90
9939;DHT22;5008;50.656;7.188;2022-10-17T03:37:59;17.00;99.90
9939;DHT22;5008;50.656;7.188;2022-10-17T03:40:26;17.00;99.90
9939;DHT22;5008;50.656;7.188;2022-10-17T03:42:52;17.10;99.90
9939;DHT22;5008;50.656;7.188;2022-10-17T03:45:19;17.10;99.90
9939;DHT22;5008;50.656;7.188;2022-10-17T03:47:46;17.10;99.90
9939;DHT22;5008;50.656;7.188;2022-10-17T03:50:13;17.10;99.90
9939;DHT22;5008;50.656;7.188;2022-10-17T03:52:40;17.10;99.90
9939;DHT22;5008;50.656;7.188;2022-10-17T03:55:08;17.00;99.90
9939;DHT22;5008;50.656;7.188;2022-10-17T03:57:35;17.00;99.90
9939;DHT22;5008;50.656;7.188;2022-10-17T04:00:03;17.00;99.90
9939;DHT22;5008;50.656;7.188;2022-10-17T04:02:30;17.00;99.90
9939;DHT22;5008;50.656;7.188;2022-10-17T04:04:57;17.00;99.90
9939;DHT22;5008;50.656;7.188;2022-10-17T04:07:24;17.10;99.90
9939;DHT22;5008;50.656;7.188;2022-10-17T04:09:50;17.10;99.90
9939;DHT22;5008;50.656;7.188;2022-10-17T04:12:19;17.10;99.90
9939;DHT22;5008;50.656;7.188;2022-10-17T04:14:45;17.00;99.90
9939;DHT22;5008;50.656;7.188;2022-10-17T04:17:12;17.00;99.90
9939;DHT22;5008;50.656;7.188;2022-10-17T04:19:39;17.00;99.90
9939;DHT22;5008;50.656;7.188;2022-10-17T04:22:06;16.90;99.90
9939;DHT22;5008;50.656;7.188;2022-10-17T04:24:33;16.80;99.90
9939;DHT22;5008;50.656;7.188;2022-10-17T04:27:00;16.80;99.90
9939;DHT22;5008;50.656;7.188;2022-10-17T04:29:28;16.80;99.90
9939;DHT22;5008;50.656;7.188;2022-10-17T04:31:55;16.80;99.90
9939;DHT22;5008;50.656;7.188;2022-10-17T04:34:22;16.90;99.90
9939;DHT22;5008;50.656;7.188;2022-10-17T04:36:48;16.80;99.90
9939;DHT22;5008;50.656;7.188;2022-10-17T04:39:16;16.80;99.90
9939;DHT22;5008;50.656;7.188;2022-10-17T04:41:43;16.70;99.90
9939;DHT22;5008;50.656;7.188;2022-10-17T04:44:10;16.70;99.90
9939;DHT22;5008;50.656;7.188;2022-10-17T04:46:38;16.60;99.90
9939;DHT22;5008;50.656;7.188;2022-10-17T04:49:05;16.60;99.90
9939;DHT22;5008;50.656;7.188;2022-10-17T04:51:32;16.70;99.90
9939;DHT22;5008;50.656;7.188;2022-10-17T04:53:58;16.70;99.90
9939;DHT22;5008;50.656;7.188;2022-10-17T04:56:25;16.60;99.90
9939;DHT22;5008;50.656;7.188;2022-10-17T04:58:52;16.60;99.90
9939;DHT22;5008;50.656;7.188;2022-10-17T05:01:20;16.60;99.90
9939;DHT22;5008;50.656;7.188;2022-10-17T05:03:49;16.60;99.90
9939;DHT22;5008;50.656;7.188;2022-10-17T05:06:17;16.60;99.90
9939;DHT22;5008;50.656;7.188;2022-10-17T05:08:44;16.60;99.90
9939;DHT22;5008;50.656;7.188;2022-10-17T05:11:16;16.60;99.90
9939;DHT22;5008;50.656;7.188;2022-10-17T05:13:43;16.60;99.90
9939;DHT22;5008;50.656;7.188;2022-10-17T05:16:10;16.60;99.90
9939;DHT22;5008;50.656;7.188;2022-10-17T05:18:37;16.70;99.90
9939;DHT22;5008;50.656;7.188;2022-10-17T05:21:05;16.70;99.90
9939;DHT22;5008;50.656;7.188;2022-10-17T05:23:32;16.70;99.90
9939;DHT22;5008;50.656;7.188;2022-10-17T05:25:59;16.70;99.90
9939;DHT22;5008;50.656;7.188;2022-10-17T05:28:26;16.70;99.90
9939;DHT22;5008;50.656;7.188;2022-10-17T05:30:53;16.70;99.90
9939;DHT22;5008;50.656;7.188;2022-10-17T05:33:21;16.70;99.90
9939;DHT22;5008;50.656;7.188;2022-10-17T05:35:48;16.70;99.90
9939;DHT22;5008;50.656;7.188;2022-10-17T05:38:16;16.80;99.90
9939;DHT22;5008;50.656;7.188;2022-10-17T05:40:43;16.80;99.90
9939;DHT22;5008;50.656;7.188;2022-10-17T05:43:09;16.80;99.90
9939;DHT22;5008;50.656;7.188;2022-10-17T05:45:36;16.80;99.90
9939;DHT22;5008;50.656;7.188;2022-10-17T05:48:03;16.80;99.90
9939;DHT22;5008;50.656;7.188;2022-10-17T05:50:30;16.80;99.90
9939;DHT22;5008;50.656;7.188;2022-10-17T05:52:57;16.80;99.90
9939;DHT22;5008;50.656;7.188;2022-10-17T05:55:25;16.90;99.90
9939;DHT22;5008;50.656;7.188;2022-10-17T05:57:52;16.80;99.90
9939;DHT22;5008;50.656;7.188;2022-10-17T06:00:20;16.80;99.90
9939;DHT22;5008;50.656;7.188;2022-10-17T06:02:47;16.90;99.90
9939;DHT22;5008;50.656;7.188;2022-10-17T06:05:14;16.90;99.90
9939;DHT22;5008;50.656;7.188;2022-10-17T06:07:41;16.80;99.90
9939;DHT22;5008;50.656;7.188;2022-10-17T06:10:09;16.90;99.90
9939;DHT22;5008;50.656;7.188;2022-10-17T06:12:38;16.90;99.90
9939;DHT22;5008;50.656;7.188;2022-10-17T06:15:06;16.90;99.90
9939;DHT22;5008;50.656;7.188;2022-10-17T06:17:33;16.90;99.90
9939;DHT22;5008;50.656;7.188;2022-10-17T06:20:00;16.90;99.90
9939;DHT22;5008;50.656;7.188;2022-10-17T06:22:27;16.90;99.90
9939;DHT22;5008;50.656;7.188;2022-10-17T06:24:54;16.90;99.90
9939;DHT22;5008;50.656;7.188;2022-10-17T06:27:21;16.90;99.90
9939;DHT22;5008;50.656;7.188;2022-10-17T06:29:49;17.00;99.90
9939;DHT22;5008;50.656;7.188;2022-10-17T06:32:16;17.00;99.90
9939;DHT22;5008;50.656;7.188;2022-10-17T06:34:43;17.00;99.90
9939;DHT22;5008;50.656;7.188;2022-10-17T06:37:10;17.00;99.90
9939;DHT22;5008;50.656;7.188;2022-10-17T06:39:37;17.10;99.90
9939;DHT22;5008;50.656;7.188;2022-10-17T06:42:03;17.10;99.90
9939;DHT22;5008;50.656;7.188;2022-10-17T06:44:30;17.00;99.90
9939;DHT22;5008;50.656;7.188;2022-10-17T06:46:59;17.10;99.90
9939;DHT22;5008;50.656;7.188;2022-10-17T06:49:26;17.10;99.90
9939;DHT22;5008;50.656;7.188;2022-10-17T06:51:53;17.10;99.90
9939;DHT22;5008;50.656;7.188;2022-10-17T06:54:20;17.20;99.90
9939;DHT22;5008;50.656;7.188;2022-10-17T06:56:47;17.20;99.90
9939;DHT22;5008;50.656;7.188;2022-10-17T06:59:13;17.20;99.90
9939;DHT22;5008;50.656;7.188;2022-10-17T07:01:41;17.30;99.90
9939;DHT22;5008;50.656;7.188;2022-10-17T07:04:09;17.30;99.90
9939;DHT22;5008;50.656;7.188;2022-10-17T07:06:37;17.40;99.90
9939;DHT22;5008;50.656;7.188;2022-10-17T07:09:04;17.40;99.90
9939;DHT22;5008;50.656;7.188;2022-10-17T07:11:32;17.40;99.90
9939;DHT22;5008;50.656;7.188;2022-10-17T07:13:59;17.50;99.90
9939;DHT22;5008;50.656;7.188;2022-10-17T07:16:26;17.60;99.90
9939;DHT22;5008;50.656;7.188;2022-10-17T07:18:54;17.60;99.90
9939;DHT22;5008;50.656;7.188;2022-10-17T07:21:23;17.70;99.90
9939;DHT22;5008;50.656;7.188;2022-10-17T07:23:50;17.70;99.90
9939;DHT22;5008;50.656;7.188;2022-10-17T07:26:18;17.70;99.90
9939;DHT22;5008;50.656;7.188;2022-10-17T07:28:49;17.70;99.90
9939;DHT22;5008;50.656;7.188;2022-10-17T07:31:18;17.70;99.90
9939;DHT22;5008;50.656;7.188;2022-10-17T07:33:45;17.70;99.90
9939;DHT22;5008;50.656;7.188;2022-10-17T07:36:12;17.70;99.90
9939;DHT22;5008;50.656;7.188;2022-10-17T07:38:41;17.70;99.90
9939;DHT22;5008;50.656;7.188;2022-10-17T07:41:09;17.70;99.90
9939;DHT22;5008;50.656;7.188;2022-10-17T07:43:36;17.70;99.90
9939;DHT22;5008;50.656;7.188;2022-10-17T07:46:04;17.70;99.90
9939;DHT22;5008;50.656;7.188;2022-10-17T07:48:31;17.70;99.90
9939;DHT22;5008;50.656;7.188;2022-10-17T07:51:01;17.70;99.90
9939;DHT22;5008;50.656;7.188;2022-10-17T07:53:28;17.70;99.90
9939;DHT22;5008;50.656;7.188;2022-10-17T07:55:56;17.70;99.90
9939;DHT22;5008;50.656;7.188;2022-10-17T07:58:23;17.70;99.90
9939;DHT22;5008;50.656;7.188;2022-10-17T08:00:50;17.70;99.90
9939;DHT22;5008;50.656;7.188;2022-10-17T08:03:17;17.70;99.90
9939;DHT22;5008;50.656;7.188;2022-10-17T08:05:44;17.80;99.90
9939;DHT22;5008;50.656;7.188;2022-10-17T08:08:10;17.80;99.90
9939;DHT22;5008;50.656;7.188;2022-10-17T08:10:37;17.80;99.90
9939;DHT22;5008;50.656;7.188;2022-10-17T08:13:05;17.80;99.90
9939;DHT22;5008;50.656;7.188;2022-10-17T08:15:32;17.90;99.90
9939;DHT22;5008;50.656;7.188;2022-10-17T08:17:59;18.00;99.90
9939;DHT22;5008;50.656;7.188;2022-10-17T08:20:26;18.00;99.90
9939;DHT22;5008;50.656;7.188;2022-10-17T08:22:53;18.00;99.90
9939;DHT22;5008;50.656;7.188;2022-10-17T08:25:21;18.10;99.90
9939;DHT22;5008;50.656;7.188;2022-10-17T08:27:48;18.10;99.90
9939;DHT22;5008;50.656;7.188;2022-10-17T08:30:17;18.10;99.90
9939;DHT22;5008;50.656;7.188;2022-10-17T08:32:44;18.10;99.90
9939;DHT22;5008;50.656;7.188;2022-10-17T08:35:10;18.20;99.90
9939;DHT22;5008;50.656;7.188;2022-10-17T08:37:39;18.10;99.90
9939;DHT22;5008;50.656;7.188;2022-10-17T08:40:08;18.20;99.90
9939;DHT22;5008;50.656;7.188;2022-10-17T08:42:48;18.30;99.90
9939;DHT22;5008;50.656;7.188;2022-10-17T08:45:24;18.30;99.90
9939;DHT22;5008;50.656;7.188;2022-10-17T08:47:56;18.30;99.90
9939;DHT22;5008;50.656;7.188;2022-10-17T08:50:29;18.30;99.90
9939;DHT22;5008;50.656;7.188;2022-10-17T08:53:02;18.50;99.90
9939;DHT22;5008;50.656;7.188;2022-10-17T08:55:34;18.50;99.90
9939;DHT22;5008;50.656;7.188;2022-10-17T08:58:01;18.50;99.90
9939;DHT22;5008;50.656;7.188;2022-10-17T09:00:31;18.50;99.90
9939;DHT22;5008;50.656;7.188;2022-10-17T09:03:10;18.60;99.90
9939;DHT22;5008;50.656;7.188;2022-10-17T09:05:48;18.60;99.90
9939;DHT22;5008;50.656;7.188;2022-10-17T09:08:28;18.70;99.90
9939;DHT22;5008;50.656;7.188;2022-10-17T09:11:01;18.70;99.90
9939;DHT22;5008;50.656;7.188;2022-10-17T09:13:43;18.70;99.90
9939;DHT22;5008;50.656;7.188;2022-10-17T09:26:30;18.80;99.90
9939;DHT22;5008;50.656;7.188;2022-10-17T09:28:59;18.70;99.90
9939;DHT22;5008;50.656;7.188;2022-10-17T09:31:31;18.70;99.90
9939;DHT22;5008;50.656;7.188;2022-10-17T09:34:01;18.90;99.90
9939;DHT22;5008;50.656;7.188;2022-10-17T09:36:30;18.90;99.90
9939;DHT22;5008;50.656;7.188;2022-10-17T09:38:59;18.90;99.90
9939;DHT22;5008;50.656;7.188;2022-10-17T09:41:33;19.10;99.90
9939;DHT22;5008;50.656;7.188;2022-10-17T09:44:13;19.10;99.90
9939;DHT22;5008;50.656;7.188;2022-10-17T09:46:42;19.20;99.90
9939;DHT22;5008;50.656;7.188;2022-10-17T09:49:17;19.10;99.90
9939;DHT22;5008;50.656;7.188;2022-10-17T09:51:44;19.10;99.90
9939;DHT22;5008;50.656;7.188;2022-10-17T09:54:18;19.10;99.90
9939;DHT22;5008;50.656;7.188;2022-10-17T09:57:02;19.20;99.90
9939;DHT22;5008;50.656;7.188;2022-10-17T09:59:31;19.30;99.90
9939;DHT22;5008;50.656;7.188;2022-10-17T10:02:08;19.40;99.90
9939;DHT22;5008;50.656;7.188;2022-10-17T10:04:35;19.40;99.90
9939;DHT22;5008;50.656;7.188;2022-10-17T10:07:04;19.50;99.90
9939;DHT22;5008;50.656;7.188;2022-10-17T10:09:33;19.50;99.90
9939;DHT22;5008;50.656;7.188;2022-10-17T10:12:15;19.60;99.90
9939;DHT22;5008;50.656;7.188;2022-10-17T10:14:43;19.80;99.90
9939;DHT22;5008;50.656;7.188;2022-10-17T10:17:32;20.20;99.90
9939;DHT22;5008;50.656;7.188;2022-10-17T10:20:00;20.20;99.90
9939;DHT22;5008;50.656;7.188;2022-10-17T10:22:28;20.50;99.90
9939;DHT22;5008;50.656;7.188;2022-10-17T10:25:15;20.50;99.90
9939;DHT22;5008;50.656;7.188;2022-10-17T10:27:45;20.70;99.90
9939;DHT22;5008;50.656;7.188;2022-10-17T10:30:17;20.70;99.90
9939;DHT22;5008;50.656;7.188;2022-10-17T10:32:52;20.70;99.90
9939;DHT22;5008;50.656;7.188;2022-10-17T10:35:20;20.60;99.90
9939;DHT22;5008;50.656;7.188;2022-10-17T10:37:52;20.50;99.90
9939;DHT22;5008;50.656;7.188;2022-10-17T10:40:25;20.30;99.90
9939;DHT22;5008;50.656;7.188;2022-10-17T10:42:58;20.20;99.90
9939;DHT22;5008;50.656;7.188;2022-10-17T10:45:28;20.20;99.90
9939;DHT22;5008;50.656;7.188;2022-10-17T10:48:19;20.40;99.90
9939;DHT22;5008;50.656;7.188;2022-10-17T10:51:04;20.60;99.90
9939;DHT22;5008;50.656;7.188;2022-10-17T10:53:44;20.70;99.90
9939;DHT22;5008;50.656;7.188;2022-10-17T10:56:15;20.90;99.90
9939;DHT22;5008;50.656;7.188;2022-10-17T11:02:16;20.90;99.90
9939;DHT22;5008;50.656;7.188;2022-10-17T11:04:48;20.90;99.90
9939;DHT22;5008;50.656;7.188;2022-10-17T11:07:20;20.80;99.90
9939;DHT22;5008;50.656;7.188;2022-10-17T11:09:53;20.90;99.90
9939;DHT22;5008;50.656;7.188;2022-10-17T11:12:26;20.70;99.90
9939;DHT22;5008;50.656;7.188;2022-10-17T11:14:59;20.60;99.90
9939;DHT22;5008;50.656;7.188;2022-10-17T11:17:35;20.70;99.90
9939;DHT22;5008;50.656;7.188;2022-10-17T11:20:11;20.60;99.90
9939;DHT22;5008;50.656;7.188;2022-10-17T11:22:43;20.60;99.90
9939;DHT22;5008;50.656;7.188;2022-10-17T11:25:32;20.60;99.90
9939;DHT22;5008;50.656;7.188;2022-10-17T11:28:14;20.50;99.90
9939;DHT22;5008;50.656;7.188;2022-10-17T11:30:48;20.30;99.90
9939;DHT22;5008;50.656;7.188;2022-10-17T11:33:29;20.10;99.90
9939;DHT22;5008;50.656;7.188;2022-10-17T11:36:02;20.10;99.90
9939;DHT22;5008;50.656;7.188;2022-10-17T11:38:37;20.10;99.90
9939;DHT22;5008;50.656;7.188;2022-10-17T11:41:09;20.10;99.90
9939;DHT22;5008;50.656;7.188;2022-10-17T11:43:44;20.30;99.90
9939;DHT22;5008;50.656;7.188;2022-10-17T11:46:14;20.30;99.90
9939;DHT22;5008;50.656;7.188;2022-10-17T11:48:51;20.30;99.90
9939;DHT22;5008;50.656;7.188;2022-10-17T11:51:20;20.20;99.90
9939;DHT22;5008;50.656;7.188;2022-10-17T11:53:52;20.20;99.90
9939;DHT22;5008;50.656;7.188;2022-10-17T11:56:25;20.20;99.90
9939;DHT22;5008;50.656;7.188;2022-10-17T11:59:01;20.20;99.90
9939;DHT22;5008;50.656;7.188;2022-10-17T12:01:37;20.20;99.90
9939;DHT22;5008;50.656;7.188;2022-10-17T12:04:18;20.20;99.90
9939;DHT22;5008;50.656;7.188;2022-10-17T12:07:01;20.20;99.90
9939;DHT22;5008;50.656;7.188;2022-10-17T12:09:39;20.20;99.90
9939;DHT22;5008;50.656;7.188;2022-10-17T12:12:08;20.10;99.90
9939;DHT22;5008;50.656;7.188;2022-10-17T12:14:38;20.10;99.90
9939;DHT22;5008;50.656;7.188;2022-10-17T12:17:21;19.90;99.90
9939;DHT22;5008;50.656;7.188;2022-10-17T12:19:51;19.90;99.90
9939;DHT22;5008;50.656;7.188;2022-10-17T12:22:23;19.80;99.90
9939;DHT22;5008;50.656;7.188;2022-10-17T12:24:56;19.80;99.90
9939;DHT22;5008;50.656;7.188;2022-10-17T12:27:41;19.80;99.90
9939;DHT22;5008;50.656;7.188;2022-10-17T12:30:20;19.70;99.90
9939;DHT22;5008;50.656;7.188;2022-10-17T12:32:56;19.80;99.90
9939;DHT22;5008;50.656;7.188;2022-10-17T12:35:26;19.70;99.90
9939;DHT22;5008;50.656;7.188;2022-10-17T12:38:18;19.70;99.90
9939;DHT22;5008;50.656;7.188;2022-10-17T12:40:53;19.70;99.90
9939;DHT22;5008;50.656;7.188;2022-10-17T12:43:46;19.70;99.90
9939;DHT22;5008;50.656;7.188;2022-10-17T12:46:42;19.80;99.90
9939;DHT22;5008;50.656;7.188;2022-10-17T12:49:34;19.80;99.90
9939;DHT22;5008;50.656;7.188;2022-10-17T12:52:18;19.90;99.90
9939;DHT22;5008;50.656;7.188;2022-10-17T12:54:50;19.90;99.90
9939;DHT22;5008;50.656;7.188;2022-10-17T12:57:20;19.90;99.90
9939;DHT22;5008;50.656;7.188;2022-10-17T12:59:51;19.70;99.90
9939;DHT22;5008;50.656;7.188;2022-10-17T13:02:21;19.70;99.90
9939;DHT22;5008;50.656;7.188;2022-10-17T13:04:57;19.70;99.90
9939;DHT22;5008;50.656;7.188;2022-10-17T13:07:27;19.70;99.90
9939;DHT22;5008;50.656;7.188;2022-10-17T13:09:54;19.60;99.90
9939;DHT22;5008;50.656;7.188;2022-10-17T13:12:24;19.60;99.90
9939;DHT22;5008;50.656;7.188;2022-10-17T13:14:53;19.60;99.90
9939;DHT22;5008;50.656;7.188;2022-10-17T13:17:24;19.60;99.90
9939;DHT22;5008;50.656;7.188;2022-10-17T13:19:53;19.60;99.90
9939;DHT22;5008;50.656;7.188;2022-10-17T13:22:21;19.50;99.90
9939;DHT22;5008;50.656;7.188;2022-10-17T13:24:51;19.50;99.90
9939;DHT22;5008;50.656;7.188;2022-10-17T13:27:25;19.60;99.90
9939;DHT22;5008;50.656;7.188;2022-10-17T13:29:53;19.60;99.90
9939;DHT22;5008;50.656;7.188;2022-10-17T13:32:22;19.50;99.90
9939;DHT22;5008;50.656;7.188;2022-10-17T13:35:07;19.60;99.90
9939;DHT22;5008;50.656;7.188;2022-10-17T13:37:34;19.50;99.90
9939;DHT22;5008;50.656;7.188;2022-10-17T13:40:04;19.50;99.90
9939;DHT22;5008;50.656;7.188;2022-10-17T13:42:38;19.60;99.90
9939;DHT22;5008;50.656;7.188;2022-10-17T13:45:15;19.60;99.90
9939;DHT22;5008;50.656;7.188;2022-10-17T13:47:43;19.60;99.90
9939;DHT22;5008;50.656;7.188;2022-10-17T13:50:20;19.60;99.90
9939;DHT22;5008;50.656;7.188;2022-10-17T13:52:49;19.60;99.90
9939;DHT22;5008;50.656;7.188;2022-10-17T13:55:34;19.60;99.90
9939;DHT22;5008;50.656;7.188;2022-10-17T13:58:14;19.60;99.90
9939;DHT22;5008;50.656;7.188;2022-10-17T14:01:06;19.60;99.90
9939;DHT22;5008;50.656;7.188;2022-10-17T14:03:34;19.60;99.90
9939;DHT22;5008;50.656;7.188;2022-10-17T14:06:16;19.60;99.90
9939;DHT22;5008;50.656;7.188;2022-10-17T14:08:53;19.50;99.90
9939;DHT22;5008;50.656;7.188;2022-10-17T14:11:29;19.50;99.90
9939;DHT22;5008;50.656;7.188;2022-10-17T14:13:58;19.50;99.90
9939;DHT22;5008;50.656;7.188;2022-10-17T14:16:32;19.50;99.90
9939;DHT22;5008;50.656;7.188;2022-10-17T14:19:00;19.60;99.90
9939;DHT22;5008;50.656;7.188;2022-10-17T14:21:30;19.50;99.90
9939;DHT22;5008;50.656;7.188;2022-10-17T14:24:29;19.50;99.90
9939;DHT22;5008;50.656;7.188;2022-10-17T14:27:30;19.50;99.90
9939;DHT22;5008;50.656;7.188;2022-10-17T14:30:00;19.50;99.90
9939;DHT22;5008;50.656;7.188;2022-10-17T14:32:30;19.50;99.90
9939;DHT22;5008;50.656;7.188;2022-10-17T14:34:59;19.50;99.90
9939;DHT22;5008;50.656;7.188;2022-10-17T14:37:33;19.40;99.90
9939;DHT22;5008;50.656;7.188;2022-10-17T14:40:06;19.40;99.90
9939;DHT22;5008;50.656;7.188;2022-10-17T14:42:38;19.40;99.90
9939;DHT22;5008;50.656;7.188;2022-10-17T14:45:07;19.40;99.90
9939;DHT22;5008;50.656;7.188;2022-10-17T14:47:35;19.40;99.90
9939;DHT22;5008;50.656;7.188;2022-10-17T14:50:04;19.40;99.90
9939;DHT22;5008;50.656;7.188;2022-10-17T14:52:32;19.40;99.90
9939;DHT22;5008;50.656;7.188;2022-10-17T14:55:16;19.40;99.90
9939;DHT22;5008;50.656;7.188;2022-10-17T14:57:47;19.40;99.90
9939;DHT22;5008;50.656;7.188;2022-10-17T15:00:15;19.40;99.90
9939;DHT22;5008;50.656;7.188;2022-10-17T15:02:43;19.40;99.90
9939;DHT22;5008;50.656;7.188;2022-10-17T15:05:11;19.40;99.90
9939;DHT22;5008;50.656;7.188;2022-10-17T15:07:38;19.40;99.90
9939;DHT22;5008;50.656;7.188;2022-10-17T15:10:05;19.50;99.90
9939;DHT22;5008;50.656;7.188;2022-10-17T15:12:33;19.40;99.90
9939;DHT22;5008;50.656;7.188;2022-10-17T15:17:44;19.40;99.90
9939;DHT22;5008;50.656;7.188;2022-10-17T15:20:13;19.30;99.90
9939;DHT22;5008;50.656;7.188;2022-10-17T15:22:41;19.30;99.90
9939;DHT22;5008;50.656;7.188;2022-10-17T15:25:08;19.20;99.90
9939;DHT22;5008;50.656;7.188;2022-10-17T15:27:35;19.30;99.90
9939;DHT22;5008;50.656;7.188;2022-10-17T15:30:03;19.20;99.90
9939;DHT22;5008;50.656;7.188;2022-10-17T15:32:29;19.20;99.90
9939;DHT22;5008;50.656;7.188;2022-10-17T15:34:58;19.20;99.90
9939;DHT22;5008;50.656;7.188;2022-10-17T15:37:25;19.10;99.90
9939;DHT22;5008;50.656;7.188;2022-10-17T15:39:54;19.10;99.90
9939;DHT22;5008;50.656;7.188;2022-10-17T15:42:22;19.10;99.90
9939;DHT22;5008;50.656;7.188;2022-10-17T15:44:52;19.10;99.90
9939;DHT22;5008;50.656;7.188;2022-10-17T15:47:23;19.00;99.90
9939;DHT22;5008;50.656;7.188;2022-10-17T15:49:50;19.10;99.90
9939;DHT22;5008;50.656;7.188;2022-10-17T15:52:18;19.00;99.90
9939;DHT22;5008;50.656;7.188;2022-10-17T15:54:45;18.90;99.90
9939;DHT22;5008;50.656;7.188;2022-10-17T15:57:15;19.00;99.90
9939;DHT22;5008;50.656;7.188;2022-10-17T15:59:43;19.00;99.90
9939;DHT22;5008;50.656;7.188;2022-10-17T16:02:12;19.00;99.90
9939;DHT22;5008;50.656;7.188;2022-10-17T16:04:40;18.90;99.90
9939;DHT22;5008;50.656;7.188;2022-10-17T16:07:07;18.90;99.90
9939;DHT22;5008;50.656;7.188;2022-10-17T16:09:36;18.80;99.90
9939;DHT22;5008;50.656;7.188;2022-10-17T16:12:04;18.80;99.90
9939;DHT22;5008;50.656;7.188;2022-10-17T16:14:32;18.70;99.90
9939;DHT22;5008;50.656;7.188;2022-10-17T16:16:59;18.70;99.90
9939;DHT22;5008;50.656;7.188;2022-10-17T16:19:26;18.70;99.90
9939;DHT22;5008;50.656;7.188;2022-10-17T16:21:55;18.70;99.90
9939;DHT22;5008;50.656;7.188;2022-10-17T16:24:22;18.60;99.90
9939;DHT22;5008;50.656;7.188;2022-10-17T16:26:50;18.60;99.90
9939;DHT22;5008;50.656;7.188;2022-10-17T16:29:17;18.50;99.90
9939;DHT22;5008;50.656;7.188;2022-10-17T16:31:44;18.50;99.90
9939;DHT22;5008;50.656;7.188;2022-10-17T16:34:13;18.50;99.90
9939;DHT22;5008;50.656;7.188;2022-10-17T16:36:40;18.50;99.90
9939;DHT22;5008;50.656;7.188;2022-10-17T16:39:07;18.50;99.90
9939;DHT22;5008;50.656;7.188;2022-10-17T16:41:36;18.50;99.90
9939;DHT22;5008;50.656;7.188;2022-10-17T16:44:06;18.50;99.90